createdAt,value
2022-12-24T00:01:14.491Z,16.48
2022-12-24T00:02:14.320Z,16.46
2022-12-24T00:03:14.049Z,16.44
2022-12-24T00:04:14.438Z,16.42
2022-12-24T00:05:14.756Z,16.47
2022-12-24T00:06:13.921Z,16.49
2022-12-24T00:07:14.348Z,16.45
2022-12-24T00:08:14.520Z,16.48
2022-12-24T00:09:13.854Z,16.52
2022-12-24T00:10:14.222Z,16.46
2022-12-24T00:11:13.753Z,16.42
2022-12-24T00:12:14.045Z,16.45
2022-12-24T00:13:14.264Z,16.49
2022-12-24T00:14:14.131Z,16.45
2022-12-24T00:15:14.609Z,16.36
2022-12-24T00:16:13.991Z,16.43
2022-12-24T00:17:14.353Z,16.43
2022-12-24T00:18:14.528Z,16.47
2022-12-24T00:19:14.043Z,16.42
2022-12-24T00:20:14.629Z,16.37
2022-12-24T00:21:13.973Z,16.37
2022-12-24T00:22:14.225Z,16.40
2022-12-24T00:23:14.850Z,16.45
2022-12-24T00:24:14.038Z,16.5
2022-12-24T00:25:14.788Z,16.48
2022-12-24T00:26:13.980Z,16.49
2022-12-24T00:27:14.257Z,16.44
2022-12-24T00:28:14.511Z,16.45
2022-12-24T00:29:14.595Z,16.40
2022-12-24T00:30:14.283Z,16.41
2022-12-24T00:31:14.961Z,16.47
2022-12-24T00:32:14.648Z,16.39
2022-12-24T00:33:17.118Z,16.40
2022-12-24T00:34:14.218Z,16.44
2022-12-24T00:35:14.408Z,16.52
2022-12-24T00:36:13.904Z,16.57
2022-12-24T00:37:14.440Z,16.54
2022-12-24T00:38:14.567Z,16.62
2022-12-24T00:39:14.001Z,16.60
2022-12-24T00:40:14.547Z,16.54
2022-12-24T00:41:14.054Z,16.5
2022-12-24T00:42:14.502Z,16.58
2022-12-24T00:43:13.770Z,16.67
2022-12-24T00:44:13.964Z,16.65
2022-12-24T00:45:14.743Z,16.61
2022-12-24T00:46:13.068Z,16.62
2022-12-24T00:47:13.539Z,16.66
2022-12-24T00:48:14.253Z,16.60
2022-12-24T00:49:14.431Z,16.59
2022-12-24T00:50:13.921Z,16.57
2022-12-24T00:51:14.048Z,16.52
2022-12-24T00:52:14.292Z,16.54
2022-12-24T00:53:14.778Z,16.44
2022-12-24T00:54:14.270Z,16.5
2022-12-24T00:55:14.800Z,16.51
2022-12-24T00:56:14.002Z,16.59
2022-12-24T00:57:13.741Z,16.61
2022-12-24T00:58:13.742Z,16.60
2022-12-24T00:59:13.989Z,16.63
2022-12-24T01:00:15.498Z,16.63
2022-12-24T01:01:15.719Z,16.68
2022-12-24T01:02:14.168Z,16.59
2022-12-24T01:03:14.705Z,16.56
2022-12-24T01:04:13.862Z,16.55
2022-12-24T01:05:14.542Z,16.55
2022-12-24T01:06:14.592Z,16.54
2022-12-24T01:07:13.672Z,16.61
2022-12-24T01:08:13.898Z,16.54
2022-12-24T01:09:14.153Z,16.53
2022-12-24T01:10:14.336Z,16.54
2022-12-24T01:11:14.692Z,16.52
2022-12-24T01:12:13.947Z,16.53
2022-12-24T01:13:14.171Z,16.52
2022-12-24T01:14:14.140Z,16.63
2022-12-24T01:15:14.658Z,16.70
2022-12-24T01:16:14.551Z,16.75
2022-12-24T01:17:13.803Z,16.71
2022-12-24T01:18:14.228Z,16.56
2022-12-24T01:19:14.260Z,16.52
2022-12-24T01:20:14.259Z,16.60
2022-12-24T01:21:14.373Z,16.63
2022-12-24T01:22:14.322Z,16.54
2022-12-24T01:23:13.686Z,16.52
2022-12-24T01:24:14.225Z,16.49
2022-12-24T01:25:14.698Z,16.51
2022-12-24T01:26:13.955Z,16.5
2022-12-24T01:27:14.147Z,16.45
2022-12-24T01:28:14.236Z,16.50
2022-12-24T01:29:14.212Z,16.47
2022-12-24T01:30:14.814Z,16.48
2022-12-24T01:31:13.991Z,16.49
2022-12-24T01:32:14.730Z,16.52
2022-12-24T01:33:14.219Z,16.5
2022-12-24T01:34:14.420Z,16.53
2022-12-24T01:35:14.041Z,16.54
2022-12-24T01:36:14.115Z,16.45
2022-12-24T01:37:14.365Z,16.49
2022-12-24T01:38:14.073Z,16.53
2022-12-24T01:39:14.394Z,16.55
2022-12-24T01:40:14.888Z,16.57
2022-12-24T01:41:14.058Z,16.55
2022-12-24T01:42:14.407Z,16.54
2022-12-24T01:43:14.886Z,16.57
2022-12-24T01:44:14.109Z,16.62
2022-12-24T01:45:15.048Z,16.59
2022-12-24T01:46:13.997Z,16.56
2022-12-24T01:47:14.492Z,16.51
2022-12-24T01:48:14.087Z,16.50
2022-12-24T01:49:14.266Z,16.55
2022-12-24T01:50:15.004Z,16.56
2022-12-24T01:51:14.733Z,16.59
2022-12-24T01:52:14.017Z,16.53
2022-12-24T01:53:14.163Z,16.54
2022-12-24T01:54:14.428Z,16.45
2022-12-24T01:55:14.843Z,16.45
2022-12-24T01:56:14.211Z,16.40
2022-12-24T01:57:14.738Z,16.47
2022-12-24T01:58:14.747Z,16.46
2022-12-24T01:59:14.495Z,16.51
2022-12-24T02:00:14.474Z,16.52
2022-12-24T02:01:14.909Z,16.51
2022-12-24T02:02:14.726Z,16.50
2022-12-24T02:03:14.696Z,16.45
2022-12-24T02:04:14.228Z,16.39
2022-12-24T02:05:14.873Z,16.37
2022-12-24T02:06:13.997Z,16.36
2022-12-24T02:07:14.200Z,16.32
2022-12-24T02:08:14.445Z,16.35
2022-12-24T02:09:14.860Z,16.31
2022-12-24T02:10:14.141Z,16.20
2022-12-24T02:11:14.848Z,16.23
2022-12-24T02:12:14.188Z,16.26
2022-12-24T02:13:14.522Z,16.30
2022-12-24T02:14:14.554Z,16.26
2022-12-24T02:15:14.160Z,16.31
2022-12-24T02:16:14.418Z,16.29
2022-12-24T02:17:14.135Z,16.21
2022-12-24T02:18:14.328Z,16.24
2022-12-24T02:19:13.724Z,16.23
2022-12-24T02:20:13.911Z,16.15
2022-12-24T02:21:14.246Z,16.17
2022-12-24T02:22:14.384Z,16.25
2022-12-24T02:23:14.657Z,16.36
2022-12-24T02:24:14.708Z,16.41
2022-12-24T02:25:14.359Z,16.36
2022-12-24T02:26:13.867Z,16.28
2022-12-24T02:27:13.975Z,16.31
2022-12-24T02:28:13.490Z,16.27
2022-12-24T02:29:13.931Z,16.26
2022-12-24T02:30:14.587Z,16.29
2022-12-24T02:31:13.983Z,16.38
2022-12-24T02:32:14.192Z,16.31
2022-12-24T02:33:14.927Z,16.28
2022-12-24T02:34:14.526Z,16.27
2022-12-24T02:35:14.930Z,16.34
2022-12-24T02:36:14.138Z,16.30
2022-12-24T02:37:14.424Z,16.28
2022-12-24T02:38:14.495Z,16.31
2022-12-24T02:39:13.829Z,16.27
2022-12-24T02:40:16.365Z,16.27
2022-12-24T02:41:13.735Z,16.25
2022-12-24T02:42:14.385Z,16.25
2022-12-24T02:43:15.020Z,16.25
2022-12-24T02:44:14.147Z,16.19
2022-12-24T02:45:15.070Z,16.20
2022-12-24T02:46:14.329Z,16.12
2022-12-24T02:47:14.883Z,16.15
2022-12-24T02:48:13.848Z,16.15
2022-12-24T02:49:14.469Z,16.23
2022-12-24T02:50:14.783Z,16.28
2022-12-24T02:51:14.123Z,16.33
2022-12-24T02:52:14.223Z,16.31
2022-12-24T02:53:14.959Z,16.23
2022-12-24T02:54:14.087Z,16.25
2022-12-24T02:55:14.711Z,16.27
2022-12-24T02:56:13.676Z,16.24
2022-12-24T02:57:14.192Z,16.25
2022-12-24T02:58:14.368Z,16.25
2022-12-24T02:59:14.960Z,16.23
2022-12-24T03:00:14.685Z,16.29
2022-12-24T03:01:14.245Z,16.21
2022-12-24T03:02:13.825Z,16.21
2022-12-24T03:03:14.577Z,16.27
2022-12-24T03:04:14.262Z,16.31
2022-12-24T03:05:14.915Z,16.31
2022-12-24T03:06:14.284Z,16.35
2022-12-24T03:07:14.600Z,16.29
2022-12-24T03:08:13.928Z,16.38
2022-12-24T03:09:13.767Z,16.39
2022-12-24T03:10:14.165Z,16.33
2022-12-24T03:11:14.668Z,16.29
2022-12-24T03:12:13.845Z,16.35
2022-12-24T03:13:13.719Z,16.41
2022-12-24T03:14:14.196Z,16.39
2022-12-24T03:15:14.788Z,16.41
2022-12-24T03:16:14.144Z,16.39
2022-12-24T03:17:14.799Z,16.30
2022-12-24T03:18:14.066Z,16.36
2022-12-24T03:19:14.268Z,16.42
2022-12-24T03:20:15.113Z,16.49
2022-12-24T03:21:14.652Z,16.47
2022-12-24T03:22:14.038Z,16.52
2022-12-24T03:23:14.803Z,16.5
2022-12-24T03:24:14.503Z,16.45
2022-12-24T03:25:14.191Z,16.46
2022-12-24T03:26:14.628Z,16.48
2022-12-24T03:27:13.829Z,16.44
2022-12-24T03:28:14.376Z,16.42
2022-12-24T03:29:14.810Z,16.43
2022-12-24T03:30:14.617Z,16.41
2022-12-24T03:31:14.292Z,16.35
2022-12-24T03:32:13.926Z,16.34
2022-12-24T03:33:14.641Z,16.40
2022-12-24T03:34:14.414Z,16.48
2022-12-24T03:35:15.336Z,16.53
2022-12-24T03:36:14.036Z,16.54
2022-12-24T03:37:14.333Z,16.44
2022-12-24T03:38:14.728Z,16.37
2022-12-24T03:39:14.367Z,16.40
2022-12-24T03:40:14.677Z,16.34
2022-12-24T03:41:14.278Z,16.29
2022-12-24T03:42:14.756Z,16.46
2022-12-24T03:43:14.553Z,16.47
2022-12-24T03:44:14.490Z,16.40
2022-12-24T03:45:14.127Z,16.40
2022-12-24T03:46:13.593Z,16.37
2022-12-24T03:47:13.914Z,16.37
2022-12-24T03:48:14.413Z,16.42
2022-12-24T03:49:14.823Z,16.46
2022-12-24T03:50:14.282Z,16.47
2022-12-24T03:51:14.725Z,16.44
2022-12-24T03:52:28.016Z,16.51
2022-12-24T03:53:13.988Z,16.48
2022-12-24T03:54:14.561Z,16.43
2022-12-24T03:55:13.999Z,16.45
2022-12-24T03:56:14.770Z,16.54
2022-12-24T03:57:14.210Z,16.58
2022-12-24T03:58:15.045Z,16.49
2022-12-24T03:59:14.298Z,16.47
2022-12-24T04:00:15.559Z,16.53
2022-12-24T04:01:14.375Z,16.54
2022-12-24T04:02:14.463Z,16.55
2022-12-24T04:03:14.412Z,16.55
2022-12-24T04:04:14.193Z,16.55
2022-12-24T04:05:15.003Z,16.49
2022-12-24T04:06:14.616Z,16.54
2022-12-24T04:07:14.365Z,16.57
2022-12-24T04:08:13.758Z,16.51
2022-12-24T04:09:14.538Z,16.56
2022-12-24T04:10:14.258Z,16.66
2022-12-24T04:11:14.677Z,16.67
2022-12-24T04:12:14.016Z,16.56
2022-12-24T04:13:14.583Z,16.63
2022-12-24T04:14:13.846Z,16.70
2022-12-24T04:15:14.651Z,16.70
2022-12-24T04:16:14.389Z,16.64
2022-12-24T04:17:13.948Z,16.63
2022-12-24T04:18:14.429Z,16.63
2022-12-24T04:19:14.937Z,16.67
2022-12-24T04:20:14.597Z,16.67
2022-12-24T04:21:14.260Z,16.69
2022-12-24T04:22:14.413Z,16.78
2022-12-24T04:23:14.355Z,16.74
2022-12-24T04:24:13.766Z,16.75
2022-12-24T04:25:14.806Z,16.76
2022-12-24T04:26:14.191Z,16.75
2022-12-24T04:27:14.535Z,16.74
2022-12-24T04:28:14.438Z,16.71
2022-12-24T04:29:13.838Z,16.72
2022-12-24T04:30:14.609Z,16.74
2022-12-24T04:31:13.844Z,16.70
2022-12-24T04:32:14.470Z,16.66
2022-12-24T04:33:14.063Z,16.73
2022-12-24T04:34:14.501Z,16.81
2022-12-24T04:35:14.195Z,16.82
2022-12-24T04:36:14.767Z,16.78
2022-12-24T04:37:14.328Z,16.83
2022-12-24T04:38:14.638Z,16.90
2022-12-24T04:39:13.816Z,16.95
2022-12-24T04:40:14.448Z,16.95
2022-12-24T04:41:20.759Z,16.99
2022-12-24T04:42:14.263Z,17.00
2022-12-24T04:43:13.836Z,17.02
2022-12-24T04:44:14.324Z,17.03
2022-12-24T04:45:15.039Z,17.02
2022-12-24T04:46:14.684Z,17.01
2022-12-24T04:47:14.213Z,16.97
2022-12-24T04:48:14.668Z,16.94
2022-12-24T04:49:14.153Z,16.96
2022-12-24T04:50:14.965Z,16.96
2022-12-24T04:51:14.442Z,16.90
2022-12-24T04:52:13.819Z,16.83
2022-12-24T04:53:14.272Z,16.69
2022-12-24T04:54:14.946Z,16.62
2022-12-24T04:55:14.248Z,16.57
2022-12-24T04:56:14.397Z,16.57
2022-12-24T04:57:14.109Z,16.61
2022-12-24T04:58:14.058Z,16.71
2022-12-24T04:59:14.929Z,16.74
2022-12-24T05:00:15.466Z,16.71
2022-12-24T05:01:14.490Z,16.63
2022-12-24T05:02:14.540Z,16.54
2022-12-24T05:03:14.262Z,16.45
2022-12-24T05:04:14.707Z,16.38
2022-12-24T05:05:14.189Z,16.34
2022-12-24T05:06:14.515Z,16.28
2022-12-24T05:07:14.453Z,16.24
2022-12-24T05:08:14.258Z,16.14
2022-12-24T05:09:14.549Z,16.13
2022-12-24T05:10:14.071Z,16.11
2022-12-24T05:11:15.054Z,16.12
2022-12-24T05:12:15.225Z,16.12
2022-12-24T05:13:14.460Z,16.11
2022-12-24T05:14:14.230Z,16.01
2022-12-24T05:15:15.751Z,16.04
2022-12-24T05:16:14.779Z,16.06
2022-12-24T05:17:15.383Z,15.97
2022-12-24T05:18:14.364Z,15.88
2022-12-24T05:19:14.561Z,15.81
2022-12-24T05:20:14.697Z,15.75
2022-12-24T05:21:14.610Z,15.73
2022-12-24T05:22:15.044Z,15.74
2022-12-24T05:23:15.090Z,15.77
2022-12-24T05:24:14.922Z,15.72
2022-12-24T05:25:15.483Z,15.67
2022-12-24T05:26:15.118Z,15.68
2022-12-24T05:27:15.052Z,15.75
2022-12-24T05:28:14.855Z,15.68
2022-12-24T05:29:14.114Z,15.76
2022-12-24T05:30:15.094Z,15.77
2022-12-24T05:31:14.722Z,15.65
2022-12-24T05:32:14.676Z,15.64
2022-12-24T05:33:14.891Z,15.56
2022-12-24T05:34:14.924Z,15.55
2022-12-24T05:35:15.025Z,15.67
2022-12-24T05:36:14.727Z,15.68
2022-12-24T05:37:14.418Z,15.59
2022-12-24T05:38:14.838Z,15.53
2022-12-24T05:39:15.987Z,15.65
2022-12-24T05:40:15.621Z,15.75
2022-12-24T05:41:14.636Z,15.74
2022-12-24T05:42:14.827Z,15.73
2022-12-24T05:43:14.651Z,15.82
2022-12-24T05:44:14.555Z,15.90
2022-12-24T05:45:15.033Z,15.97
2022-12-24T05:46:14.661Z,15.98
2022-12-24T05:47:14.463Z,16.04
2022-12-24T05:48:14.255Z,16.02
2022-12-24T05:49:13.465Z,16.02
2022-12-24T05:50:15.019Z,16.05
2022-12-24T05:51:14.870Z,16.02
2022-12-24T05:52:14.657Z,16.06
2022-12-24T05:53:14.554Z,16.11
2022-12-24T05:54:14.368Z,16.07
2022-12-24T05:55:14.565Z,16.06
2022-12-24T05:56:14.178Z,16.09
2022-12-24T05:57:14.792Z,16.10
2022-12-24T05:58:15.095Z,16.11
2022-12-24T05:59:20.079Z,16.15
2022-12-24T06:00:16.223Z,16.11
2022-12-24T06:01:15.178Z,16.10
2022-12-24T06:02:14.311Z,16.13
2022-12-24T06:03:14.256Z,16.18
2022-12-24T06:04:14.394Z,16.19
2022-12-24T06:05:15.078Z,16.20
2022-12-24T06:06:15.037Z,16.20
2022-12-24T06:07:14.984Z,16.15
2022-12-24T06:08:14.621Z,16.11
2022-12-24T06:09:15.001Z,16.12
2022-12-24T06:10:15.482Z,16.09
2022-12-24T06:11:14.641Z,16.10
2022-12-24T06:12:14.695Z,16.05
2022-12-24T06:13:15.171Z,16.04
2022-12-24T06:14:14.314Z,16.10
2022-12-24T06:15:20.325Z,16.15
2022-12-24T06:16:14.553Z,16.09
2022-12-24T06:17:15.054Z,16.02
2022-12-24T06:18:15.016Z,16.06
2022-12-24T06:19:14.582Z,16.01
2022-12-24T06:20:14.768Z,16.08
2022-12-24T06:21:14.599Z,16.07
2022-12-24T06:22:14.452Z,16.04
2022-12-24T06:23:15.472Z,16.01
2022-12-24T06:24:14.360Z,16.07
2022-12-24T06:25:14.569Z,16.04
2022-12-24T06:26:14.006Z,16.05
2022-12-24T06:27:14.737Z,16.06
2022-12-24T06:28:14.823Z,16.04
2022-12-24T06:29:15.274Z,15.96
2022-12-24T06:30:14.546Z,15.94
2022-12-24T06:31:14.491Z,16.00
2022-12-24T06:32:14.596Z,16.04
2022-12-24T06:33:15.146Z,15.92
2022-12-24T06:34:14.893Z,15.81
2022-12-24T06:35:15.149Z,15.82
2022-12-24T06:36:17.255Z,15.86
2022-12-24T06:37:14.927Z,15.81
2022-12-24T06:38:15.145Z,15.92
2022-12-24T06:39:15.371Z,15.96
2022-12-24T06:40:14.108Z,15.97
2022-12-24T06:41:15.242Z,15.87
2022-12-24T06:42:14.280Z,15.93
2022-12-24T06:43:14.381Z,15.94
2022-12-24T06:44:14.514Z,15.96
2022-12-24T06:45:14.891Z,15.93
2022-12-24T06:46:14.605Z,15.97
2022-12-24T06:47:14.937Z,15.97
2022-12-24T06:48:14.684Z,16.00
2022-12-24T06:49:14.741Z,16.01
2022-12-24T06:50:14.736Z,16.00
2022-12-24T06:51:14.779Z,15.97
2022-12-24T06:52:14.744Z,15.87
2022-12-24T06:53:14.932Z,15.85
2022-12-24T06:54:15.036Z,15.81
2022-12-24T06:55:15.320Z,15.84
2022-12-24T06:56:14.535Z,15.89
2022-12-24T06:57:14.454Z,15.96
2022-12-24T06:58:14.411Z,15.98
2022-12-24T06:59:15.051Z,15.93
2022-12-24T07:00:15.923Z,15.94
2022-12-24T07:01:15.396Z,15.99
2022-12-24T07:02:14.695Z,15.99
2022-12-24T07:03:14.700Z,16.00
2022-12-24T07:04:20.081Z,16.09
2022-12-24T07:05:15.110Z,16.12
2022-12-24T07:06:14.847Z,16.04
2022-12-24T07:07:14.599Z,15.98
2022-12-24T07:08:14.364Z,15.98
2022-12-24T07:09:14.377Z,16.04
2022-12-24T07:10:15.107Z,16.13
2022-12-24T07:11:14.643Z,16.16
2022-12-24T07:12:14.363Z,16.20
2022-12-24T07:13:14.369Z,16.16
2022-12-24T07:14:14.088Z,16.12
2022-12-24T07:15:14.417Z,16.12
2022-12-24T07:16:14.355Z,16.14
2022-12-24T07:17:15.374Z,16.02
2022-12-24T07:18:14.417Z,16.02
2022-12-24T07:19:14.154Z,15.97
2022-12-24T07:20:14.327Z,15.93
2022-12-24T07:21:14.646Z,15.82
2022-12-24T07:22:15.861Z,15.85
2022-12-24T07:23:14.715Z,15.87
2022-12-24T07:24:14.442Z,15.82
2022-12-24T07:25:14.490Z,15.86
2022-12-24T07:26:14.334Z,15.92
2022-12-24T07:27:14.699Z,15.84
2022-12-24T07:28:14.486Z,15.86
2022-12-24T07:29:14.598Z,15.97
2022-12-24T07:30:15.401Z,15.89
2022-12-24T07:31:15.322Z,15.92
2022-12-24T07:32:14.951Z,15.89
2022-12-24T07:33:14.558Z,15.84
2022-12-24T07:34:14.375Z,15.90
2022-12-24T07:35:14.849Z,15.98
2022-12-24T07:36:15.142Z,15.93
2022-12-24T07:37:15.219Z,15.91
2022-12-24T07:38:14.888Z,15.86
2022-12-24T07:39:14.623Z,15.93
2022-12-24T07:40:14.874Z,15.99
2022-12-24T07:41:15.334Z,16.04
2022-12-24T07:42:14.389Z,15.97
2022-12-24T07:43:14.887Z,15.89
2022-12-24T07:44:14.974Z,15.84
2022-12-24T07:45:15.359Z,15.77
2022-12-24T07:46:14.535Z,15.77
2022-12-24T07:47:15.229Z,15.87
2022-12-24T07:48:14.018Z,15.91
2022-12-24T07:49:15.541Z,15.92
2022-12-24T07:50:14.995Z,15.98
2022-12-24T07:51:14.963Z,15.96
2022-12-24T07:52:14.338Z,15.97
2022-12-24T07:53:14.645Z,15.88
2022-12-24T07:54:14.216Z,15.78
2022-12-24T07:55:14.848Z,15.85
2022-12-24T07:56:14.512Z,15.92
2022-12-24T07:57:15.400Z,15.98
2022-12-24T07:58:14.847Z,16.02
2022-12-24T07:59:15.385Z,16.04
2022-12-24T08:00:15.811Z,16.01
2022-12-24T08:01:15.624Z,15.99
2022-12-24T08:02:18.393Z,15.97
2022-12-24T08:03:15.385Z,16.05
2022-12-24T08:04:14.990Z,16.12
2022-12-24T08:05:15.201Z,16.18
2022-12-24T08:06:14.612Z,16.15
2022-12-24T08:07:15.411Z,16.07
2022-12-24T08:08:14.663Z,16.03
2022-12-24T08:09:15.873Z,16.04
2022-12-24T08:10:14.704Z,15.98
2022-12-24T08:11:15.909Z,16.00
2022-12-24T08:12:15.467Z,16.06
2022-12-24T08:13:14.729Z,16.06
2022-12-24T08:14:15.571Z,16.10
2022-12-24T08:15:15.617Z,16.12
2022-12-24T08:16:14.768Z,16.10
2022-12-24T08:17:14.945Z,16.03
2022-12-24T08:18:14.929Z,15.98
2022-12-24T08:19:14.740Z,15.96
2022-12-24T08:20:15.332Z,15.97
2022-12-24T08:21:15.158Z,15.98
2022-12-24T08:22:14.966Z,16.02
2022-12-24T08:23:15.598Z,16.03
2022-12-24T08:24:15.176Z,15.99
2022-12-24T08:25:15.386Z,16.06
2022-12-24T08:26:15.004Z,16.17
2022-12-24T08:27:14.565Z,16.20
2022-12-24T08:28:23.513Z,16.20
2022-12-24T08:29:15.512Z,16.23
2022-12-24T08:30:20.791Z,16.24
2022-12-24T08:31:14.606Z,16.21
2022-12-24T08:32:14.765Z,16.22
2022-12-24T08:33:15.441Z,16.26
2022-12-24T08:34:14.476Z,16.35
2022-12-24T08:35:15.420Z,16.39
2022-12-24T08:36:14.431Z,16.37
2022-12-24T08:37:15.471Z,16.40
2022-12-24T08:38:15.465Z,16.5
2022-12-24T08:39:15.169Z,16.54
2022-12-24T08:40:14.876Z,16.60
2022-12-24T08:41:15.241Z,16.67
2022-12-24T08:42:14.820Z,16.68
2022-12-24T08:43:15.353Z,16.72
2022-12-24T08:44:14.978Z,16.75
2022-12-24T08:45:15.491Z,16.72
2022-12-24T08:46:14.966Z,16.76
2022-12-24T08:47:14.482Z,16.82
2022-12-24T08:48:14.500Z,16.83
2022-12-24T08:49:14.329Z,16.88
2022-12-24T08:50:14.964Z,16.88
2022-12-24T08:51:14.801Z,16.93
2022-12-24T08:52:15.551Z,16.94
2022-12-24T08:53:15.149Z,16.99
2022-12-24T08:54:15.405Z,17.12
2022-12-24T08:55:15.010Z,17.18
2022-12-24T08:56:14.732Z,17.17
2022-12-24T08:57:15.154Z,17.22
2022-12-24T08:58:14.391Z,17.33
2022-12-24T08:59:14.915Z,17.39
2022-12-24T09:00:16.138Z,17.46
2022-12-24T09:01:15.282Z,17.55
2022-12-24T09:02:15.314Z,17.63
2022-12-24T09:03:15.163Z,17.63
2022-12-24T09:04:14.373Z,17.62
2022-12-24T09:05:15.493Z,17.64
2022-12-24T09:06:14.853Z,17.68
2022-12-24T09:07:15.307Z,17.66
2022-12-24T09:09:14.655Z,17.75
2022-12-24T09:10:15.331Z,17.75
2022-12-24T09:11:14.970Z,17.71
2022-12-24T09:12:15.460Z,17.71
2022-12-24T09:13:14.764Z,17.76
2022-12-24T09:14:14.986Z,17.77
2022-12-24T09:15:15.569Z,17.73
2022-12-24T09:16:14.978Z,17.73
2022-12-24T09:17:14.389Z,17.70
2022-12-24T09:18:14.978Z,17.75
2022-12-24T09:19:14.227Z,17.72
2022-12-24T09:20:15.813Z,17.72
2022-12-24T09:21:14.782Z,17.71
2022-12-24T09:22:15.488Z,17.72
2022-12-24T09:23:14.638Z,17.75
2022-12-24T09:24:14.995Z,17.77
2022-12-24T09:25:15.587Z,17.73
2022-12-24T09:26:15.008Z,17.76
2022-12-24T09:27:15.439Z,17.74
2022-12-24T09:28:14.899Z,17.77
2022-12-24T09:29:14.307Z,17.81
2022-12-24T09:30:14.916Z,17.71
2022-12-24T09:31:15.200Z,17.77
2022-12-24T09:32:14.399Z,17.78
2022-12-24T09:33:14.332Z,17.79
2022-12-24T09:34:14.230Z,17.77
2022-12-24T09:35:14.908Z,17.82
2022-12-24T09:36:15.290Z,17.83
2022-12-24T09:37:14.745Z,17.82
2022-12-24T09:38:14.761Z,17.84
2022-12-24T09:39:15.287Z,17.87
2022-12-24T09:40:14.653Z,17.90
2022-12-24T09:41:15.348Z,18
2022-12-24T09:42:15.178Z,18.05
2022-12-24T09:43:15.030Z,18.07
2022-12-24T09:44:14.719Z,18.15
2022-12-24T09:45:15.521Z,18.19
2022-12-24T09:46:14.500Z,18.14
2022-12-24T09:47:15.062Z,18.18
2022-12-24T09:48:14.877Z,18.24
2022-12-24T09:49:14.929Z,18.21
2022-12-24T09:50:15.397Z,18.21
2022-12-24T09:51:14.641Z,18.22
2022-12-24T09:52:14.826Z,18.22
2022-12-24T09:53:15.394Z,18.20
2022-12-24T09:54:14.489Z,18.26
2022-12-24T09:55:15.121Z,18.25
2022-12-24T09:56:15.323Z,18.27
2022-12-24T09:57:14.814Z,18.19
2022-12-24T09:58:15.095Z,18.10
2022-12-24T09:59:14.672Z,18.10
2022-12-24T10:00:15.940Z,18.10
2022-12-24T10:01:15.666Z,18.15
2022-12-24T10:02:14.618Z,18.12
2022-12-24T10:03:14.934Z,18.10
2022-12-24T10:04:15.346Z,18.11
2022-12-24T10:05:14.941Z,18.13
2022-12-24T10:06:15.316Z,18.12
2022-12-24T10:07:15.403Z,18.07
2022-12-24T10:08:14.236Z,18.06
2022-12-24T10:09:15.201Z,18.04
2022-12-24T10:10:15.275Z,18.12
2022-12-24T10:11:14.732Z,18.11
2022-12-24T10:12:14.928Z,18.09
2022-12-24T10:13:14.822Z,18.07
2022-12-24T10:14:15.305Z,18.06
2022-12-24T10:15:15.250Z,18.02
2022-12-24T10:16:15.187Z,18.02
2022-12-24T10:17:14.789Z,18.06
2022-12-24T10:18:15.398Z,18.05
2022-12-24T10:19:16.249Z,18.07
2022-12-24T10:20:15.337Z,18.11
2022-12-24T10:21:15.155Z,18.06
2022-12-24T10:22:14.808Z,18.03
2022-12-24T10:23:15.831Z,18
2022-12-24T10:24:15.088Z,18.04
2022-12-24T10:25:15.943Z,17.98
2022-12-24T10:26:14.764Z,18.03
2022-12-24T10:27:15.141Z,18.05
2022-12-24T10:28:14.592Z,18.04
2022-12-24T10:29:15.340Z,18.05
2022-12-24T10:30:17.510Z,18.10
2022-12-24T10:31:15.334Z,18.15
2022-12-24T10:32:15.136Z,18.14
2022-12-24T10:33:14.717Z,18.10
2022-12-24T10:34:15.249Z,18.14
2022-12-24T10:35:14.817Z,18.13
2022-12-24T10:36:15.473Z,18.12
2022-12-24T10:37:14.757Z,18.14
2022-12-24T10:38:14.151Z,18.13
2022-12-24T10:39:14.473Z,18.18
2022-12-24T10:40:15.146Z,18.27
2022-12-24T10:41:14.635Z,18.23
2022-12-24T10:42:14.963Z,18.21
2022-12-24T10:43:15.219Z,18.28
2022-12-24T10:44:14.891Z,18.26
2022-12-24T10:45:15.889Z,18.20
2022-12-24T10:46:15.008Z,18.20
2022-12-24T10:47:14.938Z,18.18
2022-12-24T10:48:14.524Z,18.19
2022-12-24T10:49:15.212Z,18.14
2022-12-24T10:50:14.997Z,18.08
2022-12-24T10:51:14.637Z,18.10
2022-12-24T10:52:14.958Z,18.16
2022-12-24T10:53:15.447Z,18.18
2022-12-24T10:54:18.268Z,18.21
2022-12-24T10:55:15.376Z,18.28
2022-12-24T10:56:14.671Z,18.25
2022-12-24T10:57:15.415Z,18.22
2022-12-24T10:58:14.694Z,18.30
2022-12-24T10:59:14.741Z,18.29
2022-12-24T11:00:16.262Z,18.28
2022-12-24T11:01:15.507Z,18.34
2022-12-24T11:02:15.676Z,18.43
2022-12-24T11:03:15.174Z,18.40
2022-12-24T11:04:14.921Z,18.37
2022-12-24T11:05:15.365Z,18.45
2022-12-24T11:06:14.774Z,18.51
2022-12-24T11:07:15.165Z,18.49
2022-12-24T11:08:14.345Z,18.45
2022-12-24T11:09:14.617Z,18.49
2022-12-24T11:10:15.198Z,18.47
2022-12-24T11:11:15.118Z,18.51
2022-12-24T11:12:14.725Z,18.52
2022-12-24T11:13:36.713Z,18.58
2022-12-24T11:14:14.503Z,18.61
2022-12-24T11:15:14.702Z,18.64
2022-12-24T11:16:15.279Z,18.63
2022-12-24T11:17:34.574Z,18.59
2022-12-24T11:18:15.066Z,18.57
2022-12-24T11:19:14.500Z,18.61
2022-12-24T11:20:15.280Z,18.59
2022-12-24T11:21:14.940Z,18.58
2022-12-24T11:22:15.616Z,18.62
2022-12-24T11:23:15.139Z,18.60
2022-12-24T11:24:14.635Z,18.65
2022-12-24T11:25:15.529Z,18.75
2022-12-24T11:26:14.863Z,18.77
2022-12-24T11:27:15.968Z,18.81
2022-12-24T11:28:14.630Z,18.81
2022-12-24T11:29:15.103Z,18.75
2022-12-24T11:30:15.158Z,18.71
2022-12-24T11:31:14.990Z,18.75
2022-12-24T11:32:15.256Z,18.71
2022-12-24T11:33:14.616Z,18.70
2022-12-24T11:34:14.984Z,18.73
2022-12-24T11:35:15.352Z,18.79
2022-12-24T11:36:14.703Z,18.69
2022-12-24T11:37:15.493Z,18.69
2022-12-24T11:38:15.156Z,18.76
2022-12-24T11:39:15.011Z,18.72
2022-12-24T11:40:15.431Z,18.71
2022-12-24T11:41:15.166Z,18.72
2022-12-24T11:42:14.464Z,18.71
2022-12-24T11:43:15.108Z,18.68
2022-12-24T11:44:14.787Z,18.67
2022-12-24T11:45:14.288Z,18.71
2022-12-24T11:46:14.912Z,18.72
2022-12-24T11:47:14.621Z,18.76
2022-12-24T11:48:15.002Z,18.72
2022-12-24T11:49:15.427Z,18.60
2022-12-24T11:50:18.522Z,18.56
2022-12-24T11:51:14.940Z,18.56
2022-12-24T11:52:14.483Z,18.56
2022-12-24T11:53:14.889Z,18.51
2022-12-24T11:54:15.105Z,18.47
2022-12-24T11:55:16.505Z,18.48
2022-12-24T11:56:14.957Z,18.57
2022-12-24T11:57:15.039Z,18.62
2022-12-24T11:58:14.563Z,18.65
2022-12-24T11:59:14.908Z,18.56
2022-12-24T12:00:15.991Z,18.57
2022-12-24T12:01:16.026Z,18.64
2022-12-24T12:02:14.453Z,18.71
2022-12-24T12:03:15.607Z,18.82
2022-12-24T12:04:14.935Z,18.87
2022-12-24T12:05:14.953Z,18.92
2022-12-24T12:06:14.491Z,18.95
2022-12-24T12:07:15.233Z,18.95
2022-12-24T12:08:14.492Z,18.95
2022-12-24T12:09:14.632Z,18.96
2022-12-24T12:10:15.107Z,18.94
2022-12-24T12:11:14.555Z,19
2022-12-24T12:12:14.738Z,19.01
2022-12-24T12:13:16.106Z,19.06
2022-12-24T12:14:14.644Z,19.11
2022-12-24T12:15:14.293Z,19.13
2022-12-24T12:16:14.954Z,19.12
2022-12-24T12:17:14.401Z,19.04
2022-12-24T12:18:14.595Z,19.05
2022-12-24T12:19:15.390Z,19.05
2022-12-24T12:20:15.144Z,19.10
2022-12-24T12:21:14.174Z,19.12
2022-12-24T12:22:14.428Z,19.20
2022-12-24T12:23:14.608Z,19.25
2022-12-24T12:24:14.608Z,19.19
2022-12-24T12:25:14.944Z,19.15
2022-12-24T12:26:15.518Z,19.11
2022-12-24T12:27:16.139Z,19.08
2022-12-24T12:28:17.438Z,19.13
2022-12-24T12:29:18.161Z,19.14
2022-12-24T12:30:22.266Z,19.15
2022-12-24T12:31:16.604Z,19.12
2022-12-24T12:32:14.762Z,19.11
2022-12-24T12:33:15.456Z,19.14
2022-12-24T12:34:14.932Z,19.15
2022-12-24T12:35:16.024Z,19.13
2022-12-24T12:36:15.085Z,19.15
2022-12-24T12:37:15.388Z,19.12
2022-12-24T12:38:14.650Z,19.05
2022-12-24T12:39:15.288Z,19.02
2022-12-24T12:40:14.750Z,19.03
2022-12-24T12:41:14.856Z,19.08
2022-12-24T12:42:15.142Z,19.10
2022-12-24T12:43:14.768Z,19.15
2022-12-24T12:44:14.779Z,19.16
2022-12-24T12:45:15.710Z,19.12
2022-12-24T12:46:14.586Z,19.09
2022-12-24T12:47:15.413Z,19.04
2022-12-24T12:48:15.450Z,18.91
2022-12-24T12:49:15.073Z,18.96
2022-12-24T12:50:14.891Z,19.07
2022-12-24T12:51:15.566Z,19.05
2022-12-24T12:52:14.920Z,19.01
2022-12-24T12:53:15.408Z,19.05
2022-12-24T12:54:14.817Z,19.02
2022-12-24T12:55:20.490Z,19.02